Terminal Aerodrome Forecast
Issued by NWS Brownsville, TX

Home | Current Version | Previous Version | Text Only | Print | Product List | Glossary On
Versions: 1 2 3 4 5 6 7 8 9 10 11 12 13 14 15 16 17 18 19
714
FTUS44 KBRO 221607 AAA
TAFMFE
TAF AMD
KMFE 221607Z 2216/2312 32009KT P6SM OVC005
     FM221800 33007KT P6SM OVC010
     FM230600 14005KT 4SM BR OVC005=

USA.gov is the U.S. government's official web portal to all federal, state and local government web resources and services.